Time;durP1;ratioP1;P1;durP2;ratioP2;P2;SDS_P1;SDS_P2;PMS_P1;PMS_P2;Temp;Humidity;BMP_temperature;BMP_pressure;BME280_temperature;BME280_humidity;BME280_pressure;Samples;Min_cycle;Max_cycle;Signal;HPM_P1;HPM_P2
2023/01/13 00:01:53;;;;;;;1999.90;999.90;;;;;;;9.14;100.00;100288.16;10369631;28;20045;-68
2023/01/13 00:06:56;;;;;;;1999.90;999.90;;;;;;;9.10;100.00;100289.28;10371443;28;20578;-68
2023/01/13 00:11:58;;;;;;;1999.90;999.90;;;;;;;9.01;100.00;100292.44;10374389;28;20050;-68
2023/01/13 00:17:01;;;;;;;1999.90;999.90;;;;;;;8.97;100.00;100311.81;10357718;28;20050;-68
2023/01/13 00:22:03;;;;;;;1999.90;999.90;;;;;;;8.81;100.00;100302.28;10363736;28;20453;-68
2023/01/13 00:27:05;;;;;;;1999.90;999.90;;;;;;;8.88;100.00;100289.72;10336214;28;20092;-73
2023/01/13 00:32:08;;;;;;;1999.90;999.90;;;;;;;8.89;100.00;100283.53;10373039;28;20046;-74
2023/01/13 00:37:13;;;;;;;1999.90;999.90;;;;;;;8.68;100.00;100280.44;10374089;28;20050;-74
2023/01/13 00:47:36;;;;;;;1999.90;999.90;;;;;;;8.59;100.00;100271.38;10358686;28;20081;-74
2023/01/13 00:52:38;;;;;;;1999.90;999.90;;;;;;;8.34;100.00;100295.38;10372409;28;20100;-74
2023/01/13 00:57:43;;;;;;;1999.90;999.90;;;;;;;8.54;100.00;100287.28;10340775;28;20054;-74
2023/01/13 01:02:45;;;;;;;1999.90;999.90;;;;;;;8.53;100.00;100287.34;10354025;28;20058;-74
2023/01/13 01:07:48;;;;;;;1999.90;999.90;;;;;;;8.36;100.00;100272.63;10378754;28;20050;-74
2023/01/13 01:12:50;;;;;;;1999.90;999.90;;;;;;;8.27;100.00;100284.44;10379540;28;20084;-74
2023/01/13 01:17:52;;;;;;;1999.90;999.90;;;;;;;8.18;100.00;100290.16;10357999;28;20050;-74
2023/01/13 01:22:55;;;;;;;1999.90;999.90;;;;;;;8.21;100.00;100294.38;10339825;28;20053;-74
2023/01/13 01:27:57;;;;;;;1999.90;999.90;;;;;;;8.21;100.00;100291.75;10366434;28;20053;-73
2023/01/13 01:33:02;;;;;;;1999.90;999.90;;;;;;;8.38;100.00;100283.81;10379306;28;20054;-74
2023/01/13 01:38:04;;;;;;;1999.90;999.90;;;;;;;8.30;100.00;100276.41;10379757;28;20062;-74
2023/01/13 01:48:41;;;;;;;1999.90;999.90;;;;;;;8.35;100.00;100282.25;10350505;28;20046;-74
2023/01/13 01:53:43;;;;;;;1999.90;999.90;;;;;;;8.27;100.00;100270.53;10370148;28;20050;-74
2023/01/13 01:58:49;;;;;;;1999.90;999.90;;;;;;;7.99;100.00;100287.72;10337238;28;20054;-74
2023/01/13 02:03:56;;;;;;;1999.90;999.90;;;;;;;7.99;100.00;100290.31;10392333;28;20060;-74
2023/01/13 02:08:59;;;;;;;1999.90;999.90;;;;;;;7.89;100.00;100279.56;10360517;28;20062;-74
2023/01/13 02:14:01;;;;;;;1999.90;999.90;;;;;;;7.89;100.00;100289.16;10377724;28;20551;-73
2023/01/13 02:19:35;;;;;;;1999.90;999.90;;;;;;;7.95;100.00;100286.19;10344651;28;20050;-73
2023/01/13 02:24:59;;;;;;;1999.90;999.90;;;;;;;7.91;100.00;100288.13;10336299;28;20100;-74
2023/01/13 02:35:54;;;;;;;1999.90;999.90;;;;;;;7.71;100.00;100267.53;10337085;28;20050;-74
2023/01/13 02:44:05;;;;;;;1999.90;999.90;;;;;;;7.80;100.00;100270.47;10337563;28;20092;-74
2023/01/13 02:46:40;;;;;;;1999.90;999.90;;;;;;;7.68;100.00;100275.50;10385339;28;20049;-74
2023/01/13 02:51:45;;;;;;;1999.90;999.90;;;;;;;7.62;100.00;100269.69;10391270;28;20072;-74
2023/01/13 02:56:49;;;;;;;1999.90;999.90;;;;;;;7.78;100.00;100271.47;10375550;28;20104;-74
2023/01/13 03:01:54;;;;;;;1999.90;999.90;;;;;;;7.70;100.00;100260.63;10374663;28;20050;-74
2023/01/13 03:07:17;;;;;;;1999.90;999.90;;;;;;;7.94;100.00;100237.59;10373519;28;20065;-74
2023/01/13 03:12:32;;;;;;;1999.90;999.90;;;;;;;7.71;100.00;100244.91;10375033;28;20042;-75
2023/01/13 03:18:19;;;;;;;1999.90;999.90;;;;;;;7.79;100.00;100239.28;10338810;28;20061;-74
2023/01/13 03:23:50;;;;;;;1999.90;999.90;;;;;;;7.77;100.00;100225.50;10331268;28;20096;-74
2023/01/13 03:29:01;;;;;;;1999.90;999.90;;;;;;;7.86;100.00;100211.94;10367988;28;20050;-74
2023/01/13 03:34:05;;;;;;;;;;;;;;;7.85;100.00;100218.09;10375309;28;20056;-74
2023/01/13 03:39:11;;;;;;;1999.90;999.90;;;;;;;7.92;100.00;100211.63;10374967;28;19921;-73
2023/01/13 03:44:21;;;;;;;1999.90;999.90;;;;;;;7.85;100.00;100212.03;10356671;28;20056;-73
2023/01/13 03:49:29;;;;;;;1999.90;999.90;;;;;;;7.82;100.00;100213.88;10334261;28;20050;-74
2023/01/13 03:54:32;;;;;;;1999.90;999.90;;;;;;;7.84;100.00;100208.59;10333732;28;20552;-73
2023/01/13 03:59:39;;;;;;;1999.90;999.90;;;;;;;7.80;100.00;100207.94;10333557;28;20053;-73
2023/01/13 04:04:59;;;;;;;1999.90;999.90;;;;;;;7.79;100.00;100221.03;10337536;28;20050;-73
2023/01/13 04:10:03;;;;;;;1999.90;999.90;;;;;;;7.96;100.00;100212.28;10346357;28;20046;-73
2023/01/13 04:15:07;;;;;;;1999.90;999.90;;;;;;;7.96;100.00;100191.44;10349668;28;20062;-73
2023/01/13 04:20:09;;;;;;;1999.90;999.90;;;;;;;7.87;100.00;100200.59;10396798;23;20046;-68
2023/01/13 04:25:12;;;;;;;1999.90;999.90;;;;;;;7.84;100.00;100212.97;10381900;28;20056;-67
2023/01/13 04:30:14;;;;;;;1999.90;999.90;;;;;;;7.82;100.00;100228.69;10380503;28;20050;-68
2023/01/13 04:35:16;;;;;;;1999.90;999.90;;;;;;;8.04;100.00;100217.91;10381657;28;20115;-68
2023/01/13 04:40:19;;;;;;;1999.90;999.90;;;;;;;7.96;97.66;100220.09;10382057;28;20053;-68
2023/01/13 04:45:21;;;;;;;1999.90;999.90;;;;;;;7.84;100.00;100233.81;10379961;28;20104;-68
2023/01/13 04:50:23;;;;;;;1999.90;999.90;;;;;;;7.82;97.40;100211.28;10378836;28;20452;-68
2023/01/13 04:55:26;;;;;;;1999.90;999.90;;;;;;;7.75;99.90;100232.53;10381528;28;20064;-68
2023/01/13 05:00:31;;;;;;;1999.90;999.90;;;;;;;7.76;100.00;100229.84;10363757;28;20489;-67
2023/01/13 05:05:34;;;;;;;1999.90;999.90;;;;;;;7.89;97.24;100209.19;10362393;28;20076;-69
2023/01/13 05:10:36;;;;;;;1999.90;999.90;;;;;;;7.83;100.00;100219.94;10380256;28;20053;-68
2023/01/13 05:21:00;;;;;;;1999.90;999.90;;;;;;;7.84;100.00;100231.22;10379112;28;20054;-67
2023/01/13 05:26:03;;;;;;;1999.90;999.90;;;;;;;7.96;100.00;100209.69;10321825;28;20050;-69
2023/01/13 05:31:05;;;;;;;1999.90;999.90;;;;;;;7.97;100.00;100227.84;10373795;28;20486;-67
2023/01/13 05:36:08;;;;;;;1999.90;999.90;;;;;;;7.96;100.00;100212.28;10379257;28;20061;-68
2023/01/13 05:46:31;;;;;;;1999.90;999.90;;;;;;;7.88;100.00;100232.72;10378670;28;20050;-69
2023/01/13 05:51:33;;;;;;;1999.90;999.90;;;;;;;7.81;100.00;100233.03;10378626;28;20054;-68
2023/01/13 05:56:36;;;;;;;1999.90;999.90;;;;;;;7.75;100.00;100216.91;10378388;28;20053;-69
2023/01/13 06:01:38;;;;;;;1999.90;999.90;;;;;;;7.90;100.00;100223.03;10378350;28;20054;-69
2023/01/13 06:06:42;;;;;;;1999.90;999.90;;;;;;;7.82;100.00;100232.13;10360531;28;20104;-69
2023/01/13 06:11:45;;;;;;;1999.90;999.90;;;;;;;7.66;100.00;100226.06;10376503;28;20054;-69
2023/01/13 06:16:47;;;;;;;1999.90;999.90;;;;;;;7.51;100.00;100245.97;10375767;28;20412;-69
2023/01/13 06:21:50;;;;;;;1999.90;999.90;;;;;;;7.48;100.00;100238.34;10360619;28;20073;-68
2023/01/13 06:26:52;;;;;;;1999.90;999.90;;;;;;;7.53;100.00;100251.97;10377947;28;20538;-68
2023/01/13 06:31:55;;;;;;;1999.90;999.90;;;;;;;7.32;100.00;100260.91;10377775;28;20092;-70
2023/01/13 06:36:57;;;;;;;1999.90;999.90;;;;;;;7.34;100.00;100249.47;10377626;28;20045;-69
2023/01/13 06:47:21;;;;;;;1999.90;999.90;;;;;;;7.23;100.00;100250.03;10361435;28;20050;-69
2023/01/13 06:52:23;;;;;;;1999.90;999.90;;;;;;;7.20;100.00;100257.19;10359692;28;20088;-68
2023/01/13 06:57:25;;;;;;;1999.90;999.90;;;;;;;7.18;100.00;100257.25;10376291;28;20056;-69
2023/01/13 07:02:28;;;;;;;1999.90;999.90;;;;;;;7.12;100.00;100256.72;10376012;28;20045;-69
2023/01/13 07:07:31;;;;;;;1999.90;999.90;;;;;;;7.17;100.00;100249.53;10376499;28;20054;-68
2023/01/13 07:15:17;;;;;;;1999.90;999.90;;;;;;;7.21;100.00;100256.25;10376186;28;20050;-70
2023/01/13 07:17:58;;;;;;;1999.90;999.90;;;;;;;7.11;100.00;100255.03;10375438;28;20077;-67
2023/01/13 07:23:01;;;;;;;1999.90;999.90;;;;;;;7.22;100.00;100273.56;10375627;28;20485;-67
2023/01/13 07:28:03;;;;;;;1999.90;999.90;;;;;;;7.09;100.00;100264.69;10375806;28;20050;-69
2023/01/13 07:33:05;;;;;;;1999.90;999.90;;;;;;;7.15;100.00;100282.59;10375416;28;20041;-69
2023/01/13 07:38:07;;;;;;;1999.90;999.90;;;;;;;7.12;100.00;100277.56;10374896;28;20053;-67
2023/01/13 07:43:30;;;;;;;1999.90;999.90;;;;;;;7.05;100.00;100272.66;10357181;28;20503;-69
2023/01/13 07:48:34;;;;;;;1999.90;999.90;;;;;;;7.10;100.00;100287.22;10360319;28;20050;-68
2023/01/13 07:53:37;;;;;;;1999.90;999.90;;;;;;;7.17;100.00;100291.19;10357560;28;20056;-69
2023/01/13 07:58:39;;;;;;;1999.90;999.90;;;;;;;7.24;100.00;100295.13;10357531;28;20112;-69
2023/01/13 08:03:42;;;;;;;1999.90;999.90;;;;;;;7.25;100.00;100302.03;10357396;28;20096;-68
2023/01/13 08:08:44;;;;;;;1999.90;999.90;;;;;;;7.25;100.00;100305.47;10357208;28;20057;-69
2023/01/13 08:13:46;;;;;;;1999.90;999.90;;;;;;;7.39;100.00;100298.72;10340533;28;20523;-69
2023/01/13 08:18:49;;;;;;;1999.90;999.90;;;;;;;7.41;100.00;100310.75;10374312;28;20054;-67
2023/01/13 08:23:51;;;;;;;1999.90;999.90;;;;;;;7.30;100.00;100305.25;10374434;28;20054;-69
2023/01/13 08:28:53;;;;;;;1999.90;999.90;;;;;;;7.44;100.00;100301.94;10374104;28;20053;-69
2023/01/13 08:33:56;;;;;;;1999.90;999.90;;;;;;;7.58;99.17;100309.00;10373788;28;20081;-69
2023/01/13 08:38:58;;;;;;;1999.90;999.90;;;;;;;7.73;99.05;100328.22;10374096;28;20100;-68
2023/01/13 08:44:00;;;;;;;1999.90;999.90;;;;;;;7.78;98.18;100321.84;10373430;28;20053;-69
2023/01/13 08:49:03;;;;;;;1999.90;999.90;;;;;;;7.87;94.02;100332.69;10355732;28;20382;-69
2023/01/13 08:54:05;;;;;;;1999.90;999.90;;;;;;;7.94;95.20;100319.25;10356517;28;20096;-69
2023/01/13 08:59:18;;;;;;;1999.90;999.90;;;;;;;8.05;94.23;100321.25;10373777;28;20057;-69
2023/01/13 09:04:22;;;;;;;1999.90;999.90;;;;;;;8.03;93.85;100338.75;10356228;28;20108;-69
2023/01/13 09:09:26;;;;;;;1999.90;999.90;;;;;;;7.91;93.94;100340.25;10361639;28;20042;-69
2023/01/13 09:14:31;;;;;;;1999.90;999.90;;;;;;;7.89;97.04;100351.72;10380056;28;20485;-69
2023/01/13 09:19:34;;;;;;;1999.90;999.90;;;;;;;7.91;96.10;100350.69;10379928;28;20386;-68
2023/01/13 09:24:36;;;;;;;1999.90;999.90;;;;;;;8.03;95.16;100343.97;10363044;28;20049;-68
2023/01/13 09:29:39;;;;;;;1999.90;999.90;;;;;;;8.15;94.75;100343.31;10380129;28;20046;-69
2023/01/13 09:34:59;;;;;;;1999.90;999.90;;;;;;;8.05;95.57;100359.53;10362715;28;20046;-68
2023/01/13 09:40:04;;;;;;;1999.90;999.90;;;;;;;8.08;96.72;100378.47;10362586;28;20052;-68
2023/01/13 09:45:14;;;;;;;1999.90;999.90;;;;;;;8.08;97.15;100377.63;10362403;28;20133;-69
2023/01/13 09:50:40;;;;;;;1999.90;999.90;;;;;;;8.05;97.09;100367.34;10361925;28;20057;-69
2023/01/13 09:55:44;;;;;;;1999.90;999.90;;;;;;;8.16;97.06;100399.75;10379337;28;20053;-69
2023/01/13 10:01:00;;;;;;;1999.90;999.90;;;;;;;7.96;100.00;100393.00;10361874;28;20081;-69
2023/01/13 10:06:16;;;;;;;1999.90;999.90;;;;;;;7.92;100.00;100408.91;10378923;28;20132;-67
2023/01/13 10:17:01;;;;;;;1999.90;999.90;;;;;;;7.75;100.00;100405.41;10377764;28;20052;-69
2023/01/13 10:22:15;;;;;;;1999.90;999.90;;;;;;;7.66;100.00;100407.63;10376939;28;20125;-67
2023/01/13 10:27:23;;;;;;;1999.90;999.90;;;;;;;7.65;100.00;100421.56;10377992;28;20061;-68
2023/01/13 10:32:25;;;;;;;1999.90;999.90;;;;;;;7.48;100.00;100433.72;10377724;28;20045;-69
2023/01/13 10:37:28;;;;;;;1999.90;999.90;;;;;;;7.33;100.00;100453.53;10359594;28;20551;-69
2023/01/13 10:42:30;;;;;;;1999.90;999.90;;;;;;;7.24;100.00;100454.81;10377321;28;20101;-69
2023/01/13 10:47:35;;;;;;;1999.90;999.90;;;;;;;7.21;100.00;100486.22;10376608;28;20424;-70
2023/01/13 10:52:41;;;;;;;1999.90;999.90;;;;;;;7.28;100.00;100480.72;10343613;28;20054;-70
2023/01/13 10:57:44;;;;;;;1999.90;999.90;;;;;;;7.18;100.00;100478.56;10359201;28;20485;-69
2023/01/13 11:03:13;;;;;;;1999.90;999.90;;;;;;;7.25;100.00;100479.94;10376587;28;20104;-69
2023/01/13 11:08:22;;;;;;;1999.90;999.90;;;;;;;7.23;100.00;100476.59;10375836;28;20081;-69
2023/01/13 11:14:31;;;;;;;1999.90;999.90;;;;;;;7.38;100.00;100479.34;10358827;28;20054;-68
2023/01/13 11:19:11;;;;;;;1999.90;999.90;;;;;;;7.36;100.00;100483.78;10361229;28;20061;-69
2023/01/13 11:24:36;;;;;;;1999.90;999.90;;;;;;;7.52;100.00;100470.88;10375366;28;20050;-68
2023/01/13 11:29:58;;;;;;;1999.90;999.90;;;;;;;7.46;100.00;100481.56;10375643;28;20046;-69
2023/01/13 11:35:03;;;;;;;1999.90;999.90;;;;;;;7.48;100.00;100483.19;10374969;28;20120;-69
2023/01/13 11:40:17;;;;;;;1999.90;999.90;;;;;;;7.46;100.00;100485.00;10358212;28;20050;-68
2023/01/13 11:45:55;;;;;;;1999.90;999.90;;;;;;;7.58;100.00;100492.25;10375778;28;20045;-69
2023/01/13 11:51:13;;;;;;;1999.90;999.90;;;;;;;7.88;100.00;100506.41;10354286;28;20045;-68
2023/01/13 11:56:28;;;;;;;1999.90;999.90;;;;;;;7.66;100.00;100496.22;10375035;28;20045;-68
2023/01/13 12:01:35;;;;;;;1999.90;999.90;;;;;;;7.77;100.00;100504.34;10374338;28;20477;-69
2023/01/13 12:06:39;;;;;;;1999.90;999.90;;;;;;;8.55;100.00;100512.50;10374832;28;20050;-68
2023/01/13 12:12:18;;;;;;;1999.90;999.90;;;;;;;8.62;100.00;100515.63;10357061;28;20539;-69
2023/01/13 12:17:38;;;;;;;1999.90;999.90;;;;;;;8.30;100.00;100521.59;10359027;28;20050;-69
2023/01/13 12:22:41;;;;;;;1999.90;999.90;;;;;;;8.41;100.00;100526.25;10374256;28;20049;-69
2023/01/13 12:27:52;;;;;;;1999.90;999.90;;;;;;;7.99;100.00;100515.38;10374854;28;20049;-65
2023/01/13 12:33:02;;;;;;;1999.90;999.90;;;;;;;7.93;100.00;100533.06;10340710;28;20050;-68
2023/01/13 12:38:11;;;;;;;1999.90;999.90;;;;;;;8.16;100.00;100532.75;10356774;28;20058;-67
2023/01/13 12:48:55;;;;;;;1999.90;999.90;;;;;;;8.05;100.00;100529.84;10367085;28;20050;-69
2023/01/13 12:53:59;;;;;;;1999.90;999.90;;;;;;;8.22;100.00;100546.38;10381697;28;20057;-68
2023/01/13 12:59:19;;;;;;;1999.90;999.90;;;;;;;8.03;100.00;100541.28;10364103;28;20065;-69
2023/01/13 13:04:50;;;;;;;1999.90;999.90;;;;;;;8.02;100.00;100556.09;10381132;28;20473;-69
2023/01/13 13:10:02;;;;;;;1999.90;999.90;;;;;;;7.89;100.00;100574.09;10363998;28;20049;-69
2023/01/13 13:15:22;;;;;;;1999.90;999.90;;;;;;;8.03;100.00;100565.59;10363499;28;20060;-68
2023/01/13 13:20:56;;;;;;;1999.90;999.90;;;;;;;7.97;100.00;100590.22;10362849;28;20050;-68
2023/01/13 13:26:18;;;;;;;1999.90;999.90;;;;;;;8.13;100.00;100581.63;10363066;28;20050;-68
2023/01/13 13:31:48;;;;;;;1999.90;999.90;;;;;;;8.00;100.00;100583.97;10379498;28;20050;-69
2023/01/13 13:37:13;;;;;;;1999.90;999.90;;;;;;;8.03;100.00;100596.03;10380059;28;20053;-69
2023/01/13 13:47:38;;;;;;;1999.90;999.90;;;;;;;8.18;98.97;100626.56;10364236;28;20058;-67
2023/01/13 13:52:55;;;;;;;1999.90;999.90;;;;;;;8.21;100.00;100643.84;10361714;28;20116;-68
2023/01/13 13:58:00;;;;;;;1999.90;999.90;;;;;;;8.21;100.00;100654.25;10361924;28;20054;-68
2023/01/13 14:03:05;;;;;;;1999.90;999.90;;;;;;;8.17;100.00;100641.38;10361918;28;20077;-67
2023/01/13 14:08:15;;;;;;;1999.90;999.90;;;;;;;8.22;99.23;100648.97;10361483;28;20057;-67
2023/01/13 14:13:22;;;;;;;1999.90;999.90;;;;;;;8.31;100.00;100665.91;10360512;28;20523;-68
2023/01/13 14:18:25;;;;;;;1999.90;999.90;;;;;;;8.14;100.00;100670.19;10361036;28;20050;-69
2023/01/13 14:23:30;;;;;;;1999.90;999.90;;;;;;;8.25;99.47;100687.09;10360766;28;20054;-69
2023/01/13 14:28:35;;;;;;;1999.90;999.90;;;;;;;8.29;97.93;100706.91;10360682;28;20050;-68
2023/01/13 14:33:46;;;;;;;1999.90;999.90;;;;;;;8.24;97.95;100725.38;10377790;28;20670;-67
2023/01/13 14:39:04;;;;;;;1999.90;999.90;;;;;;;8.25;98.10;100715.78;10343547;28;20505;-68
2023/01/13 14:44:18;;;;;;;1999.90;999.90;;;;;;;8.28;96.79;100716.47;10377336;28;20046;-69
2023/01/13 14:49:36;;;;;;;1999.90;999.90;;;;;;;8.29;97.55;100736.44;10359229;28;20482;-68
2023/01/13 14:54:52;;;;;;;1999.90;999.90;;;;;;;8.27;96.72;100759.13;10377019;28;20050;-70
2023/01/13 15:00:13;;;;;;;1999.90;999.90;;;;;;;8.26;95.96;100759.22;10359860;28;20060;-70
2023/01/13 15:05:19;;;;;;;1999.90;999.90;;;;;;;8.12;100.00;100760.72;10376049;28;20054;-68
2023/01/13 15:10:29;;;;;;;1999.90;999.90;;;;;;;8.09;100.00;100762.63;10376884;28;20046;-68
2023/01/13 15:15:36;;;;;;;1999.90;999.90;;;;;;;8.00;100.00;100783.00;10359006;28;20053;-68
2023/01/13 15:20:40;;;;;;;1999.90;999.90;;;;;;;8.12;99.95;100791.13;10358618;28;20061;-68
2023/01/13 15:25:42;;;;;;;1999.90;999.90;;;;;;;8.21;95.49;100787.28;10358535;28;20057;-68
2023/01/13 15:30:46;;;;;;;1999.90;999.90;;;;;;;8.15;98.06;100806.66;10375030;28;20042;-69
2023/01/13 15:35:50;;;;;;;1999.90;999.90;;;;;;;8.22;95.96;100825.47;10358246;28;20045;-68
2023/01/13 15:40:52;;;;;;;1999.90;999.90;;;;;;;8.15;96.66;100827.50;10357459;28;20493;-68
2023/01/13 15:51:15;;;;;;;1999.90;999.90;;;;;;;8.10;96.55;100850.34;10360471;28;20045;-69
2023/01/13 15:56:28;;;;;;;1999.90;999.90;;;;;;;8.07;95.58;100850.50;10375033;28;20061;-69
2023/01/13 16:01:30;;;;;;;1999.90;999.90;;;;;;;7.93;97.77;100851.97;10374279;28;20050;-69
2023/01/13 16:06:35;;;;;;;1999.90;999.90;;;;;;;7.99;95.62;100838.66;10374839;28;20054;-69
2023/01/13 16:11:37;;;;;;;1999.90;999.90;;;;;;;7.94;96.84;100856.28;10373975;28;20401;-68
2023/01/13 16:16:39;;;;;;;1999.90;999.90;;;;;;;7.97;96.38;100857.91;10375527;28;20054;-69
2023/01/13 16:21:42;;;;;;;1999.90;999.90;;;;;;;8.01;96.83;100875.09;10382410;28;20501;-68
2023/01/13 16:26:44;;;;;;;1999.90;999.90;;;;;;;8.07;96.18;100876.56;10382831;28;20049;-69
2023/01/13 16:31:46;;;;;;;1999.90;999.90;;;;;;;8.12;95.09;100887.63;10382557;28;20100;-69
2023/01/13 16:36:49;;;;;;;1999.90;999.90;;;;;;;8.12;94.68;100890.25;10359207;23;20520;-65
2023/01/13 16:41:51;;;;;;;1999.90;999.90;;;;;;;8.11;94.76;100899.00;10340463;28;20089;-65
2023/01/13 16:46:54;;;;;;;1999.90;999.90;;;;;;;8.12;94.88;100896.31;10340828;28;20522;-65
2023/01/13 16:51:56;;;;;;;1999.90;999.90;;;;;;;8.12;93.99;100906.75;10341212;28;20073;-65
2023/01/13 16:56:59;;;;;;;1999.90;999.90;;;;;;;7.93;97.17;100911.94;10339804;28;20061;-66
2023/01/13 17:02:02;;;;;;;1999.90;999.90;;;;;;;7.98;96.57;100929.97;10340876;28;20058;-66
2023/01/13 17:07:10;;;;;;;1999.90;999.90;;;;;;;7.92;97.02;100925.91;10339529;28;20057;-66
2023/01/13 17:12:13;;;;;;;1999.90;999.90;;;;;;;7.80;98.43;100947.28;10338699;28;20482;-65
2023/01/13 17:17:26;;;;;;;1999.90;999.90;;;;;;;7.81;98.83;100947.22;10339111;28;20050;-67
2023/01/13 17:22:29;;;;;;;1999.90;999.90;;;;;;;7.84;98.84;100954.06;10338895;28;20046;-66
2023/01/13 17:27:33;;;;;;;1999.90;999.90;;;;;;;7.81;98.36;100968.06;10337283;28;20048;-66
2023/01/13 17:32:35;;;;;;;1999.90;999.90;;;;;;;7.72;98.18;100981.50;10331794;28;20042;-66
2023/01/13 17:37:38;;;;;;;1999.90;999.90;;;;;;;7.89;96.03;100970.34;10321849;28;20065;-66
2023/01/13 17:42:40;;;;;;;1999.90;999.90;;;;;;;7.89;96.81;100985.16;10314436;28;20055;-66
2023/01/13 17:47:43;;;;;;;1999.90;999.90;;;;;;;7.90;95.98;100985.09;10339100;28;20054;-66
2023/01/13 17:52:48;;;;;;;1999.90;999.90;;;;;;;7.90;94.94;100992.03;10339412;28;20077;-66
2023/01/13 17:57:50;;;;;;;1999.90;999.90;;;;;;;7.94;93.89;101001.44;10338684;28;20050;-66
2023/01/13 18:02:53;;;;;;;1999.90;999.90;;;;;;;7.83;94.80;100999.28;10338443;28;20085;-66
2023/01/13 18:07:55;;;;;;;1999.90;999.90;;;;;;;7.78;95.05;101003.84;10338669;28;20054;-65
2023/01/13 18:12:58;;;;;;;1999.90;999.90;;;;;;;7.81;95.76;101032.38;10337502;28;20402;-66
2023/01/13 18:18:00;;;;;;;1999.90;999.90;;;;;;;7.78;96.09;101037.72;10337370;28;20069;-66
2023/01/13 18:28:24;;;;;;;1999.90;999.90;;;;;;;7.66;97.25;101053.88;10337685;28;20050;-66
2023/01/13 18:33:26;;;;;;;1999.90;999.90;;;;;;;7.73;97.13;101055.31;10337197;28;20772;-65
2023/01/13 18:38:28;;;;;;;1999.90;999.90;;;;;;;7.75;97.55;101056.97;10335891;28;20054;-66
2023/01/13 18:43:32;;;;;;;1999.90;999.90;;;;;;;7.76;99.33;101063.00;10336758;28;20046;-66
2023/01/13 18:48:34;;;;;;;1999.90;999.90;;;;;;;7.80;100.00;101070.66;10335571;28;20046;-66
2023/01/13 18:53:37;;;;;;;1999.90;999.90;;;;;;;7.70;100.00;101073.69;10341324;28;20038;-65
2023/01/13 18:58:50;;;;;;;1999.90;999.90;;;;;;;7.46;100.00;101086.78;10360502;28;20054;-64
2023/01/13 19:03:54;;;;;;;1999.90;999.90;;;;;;;7.60;100.00;101096.69;10340360;28;20489;-65
2023/01/13 19:08:57;;;;;;;1999.90;999.90;;;;;;;7.62;100.00;101105.28;10332976;28;20108;-65
2023/01/13 19:14:00;;;;;;;1999.90;999.90;;;;;;;7.76;100.00;101107.31;10334391;28;20057;-65
2023/01/13 19:19:02;;;;;;;1999.90;999.90;;;;;;;7.64;100.00;101121.69;10334605;28;20058;-65
2023/01/13 19:24:05;;;;;;;1999.90;999.90;;;;;;;7.53;100.00;101116.94;10333586;28;20093;-65
2023/01/13 19:29:08;;;;;;;1999.90;999.90;;;;;;;7.56;100.00;101114.16;10315450;28;20042;-64
2023/01/13 19:34:10;;;;;;;1999.90;999.90;;;;;;;7.47;100.00;101140.59;10327290;28;20560;-65
2023/01/13 19:39:13;;;;;;;1999.90;999.90;;;;;;;7.56;100.00;101158.47;10332615;28;20120;-64
2023/01/13 19:49:37;;;;;;;1999.90;999.90;;;;;;;7.52;100.00;101229.03;10320012;28;20104;-65
2023/01/13 19:54:39;;;;;;;1999.90;999.90;;;;;;;7.02;100.00;101188.31;10332043;28;20410;-65
2023/01/13 19:59:41;;;;;;;1999.90;999.90;;;;;;;7.06;100.00;101195.09;10334394;28;20057;-65
2023/01/13 20:04:44;;;;;;;1999.90;999.90;;;;;;;7.00;100.00;101203.97;10333892;28;20046;-65
2023/01/13 20:09:46;;;;;;;1999.90;999.90;;;;;;;6.94;100.00;101205.94;10315206;28;20050;-65
2023/01/13 20:14:49;;;;;;;1999.90;999.90;;;;;;;7.15;100.00;101219.97;10330364;28;20089;-65
2023/01/13 20:19:51;;;;;;;1999.90;999.90;;;;;;;7.21;100.00;101224.94;10333998;28;20050;-65
2023/01/13 20:24:54;;;;;;;1999.90;999.90;;;;;;;7.27;100.00;101223.88;10331588;28;20449;-65
2023/01/13 20:29:56;;;;;;;1999.90;999.90;;;;;;;7.31;100.00;101239.31;10316567;28;20058;-65
2023/01/13 20:34:59;;;;;;;1999.90;999.90;;;;;;;7.23;100.00;101229.19;10331922;28;20058;-65
2023/01/13 20:40:02;;;;;;;1999.90;999.90;;;;;;;7.31;100.00;101220.22;10314683;28;20054;-65
2023/01/13 20:45:04;;;;;;;1999.90;999.90;;;;;;;7.21;100.00;101219.72;10332561;28;20046;-65
2023/01/13 20:50:07;;;;;;;1999.90;999.90;;;;;;;7.23;100.00;101223.97;10315652;28;20528;-64
2023/01/13 20:55:10;;;;;;;1999.90;999.90;;;;;;;7.07;100.00;101233.25;10325656;28;20050;-64
2023/01/13 21:00:13;;;;;;;1999.90;999.90;;;;;;;7.25;100.00;101232.59;10326070;28;20050;-64
2023/01/13 21:05:15;;;;;;;1999.90;999.90;;;;;;;7.26;100.00;101243.84;10332223;28;20057;-64
2023/01/13 21:10:17;;;;;;;1999.90;999.90;;;;;;;7.32;100.00;101251.44;10336260;28;20057;-64
2023/01/13 21:15:21;;;;;;;1999.90;999.90;;;;;;;7.18;100.00;101251.09;10338615;28;20053;-65
2023/01/13 21:20:24;;;;;;;1999.90;999.90;;;;;;;7.42;100.00;101260.63;10338532;28;20050;-65
2023/01/13 21:25:26;;;;;;;1999.90;999.90;;;;;;;7.43;100.00;101269.25;10339926;28;20057;-65
2023/01/13 21:30:29;;;;;;;1999.90;999.90;;;;;;;7.27;100.00;101258.56;10322375;28;20054;-65
2023/01/13 21:35:31;;;;;;;1999.90;999.90;;;;;;;7.35;100.00;101273.94;10320460;28;20061;-65
2023/01/13 21:40:34;;;;;;;1999.90;999.90;;;;;;;7.29;100.00;101267.19;10321016;28;20058;-64
2023/01/13 21:51:00;;;;;;;1999.90;999.90;;;;;;;7.62;100.00;101272.91;10374961;28;20092;-65
2023/01/13 21:56:02;;;;;;;1999.90;999.90;;;;;;;7.39;100.00;101285.94;10369633;28;20138;-65
2023/01/13 22:01:05;;;;;;;1999.90;999.90;;;;;;;7.38;100.00;101287.69;10320848;28;20057;-65
2023/01/13 22:06:07;;;;;;;1999.90;999.90;;;;;;;7.42;100.00;101288.44;10338448;28;20054;-65
2023/01/13 22:11:10;;;;;;;1999.90;999.90;;;;;;;7.34;100.00;101306.09;10335030;28;20053;-65
2023/01/13 22:16:12;;;;;;;1999.90;999.90;;;;;;;7.37;100.00;101303.38;10336482;28;20050;-65
2023/01/13 22:21:16;;;;;;;1999.90;999.90;;;;;;;7.47;100.00;101316.94;10337915;28;20050;-65
2023/01/13 22:26:19;;;;;;;1999.90;999.90;;;;;;;7.50;100.00;101324.59;10334790;28;20050;-64
2023/01/13 22:31:22;;;;;;;1999.90;999.90;;;;;;;7.61;100.00;101325.06;10336310;28;20050;-65
2023/01/13 22:36:25;;;;;;;1999.90;999.90;;;;;;;7.55;100.00;101339.19;10318778;28;20061;-65
2023/01/13 22:41:28;;;;;;;1999.90;999.90;;;;;;;7.48;100.00;101342.06;10336254;28;20070;-65
2023/01/13 22:46:30;;;;;;;1999.90;999.90;;;;;;;7.51;100.00;101324.56;10336925;28;20054;-65
2023/01/13 22:51:33;;;;;;;1999.90;999.90;;;;;;;7.58;100.00;101344.31;10334968;28;20077;-65
2023/01/13 22:56:35;;;;;;;1999.90;999.90;;;;;;;7.58;100.00;101328.66;10334805;28;20092;-65
2023/01/13 23:01:38;;;;;;;1999.90;999.90;;;;;;;7.68;100.00;101334.38;10335654;28;20046;-65
2023/01/13 23:06:40;;;;;;;1999.90;999.90;;;;;;;7.63;100.00;101331.06;10336091;28;20057;-65
2023/01/13 23:11:43;;;;;;;1999.90;999.90;;;;;;;7.42;100.00;101332.72;10316983;28;20087;-65
2023/01/13 23:16:45;;;;;;;1999.90;999.90;;;;;;;7.28;100.00;101341.03;10334060;28;20061;-65
2023/01/13 23:21:48;;;;;;;1999.90;999.90;;;;;;;7.28;100.00;101340.16;10334947;28;20403;-65
2023/01/13 23:26:50;;;;;;;1999.90;999.90;;;;;;;7.24;100.00;101336.81;10330890;28;20398;-65